sensor_id;sensor_type;location;lat;lon;timestamp;pressure;altitude;pressure_sealevel;temperature;humidity
48778;BME280;34578;0.000;0.000;2024-01-30T00:02:11;97964.69;;;17.04;43.97
48778;BME280;34578;0.000;0.000;2024-01-30T00:07:11;97958.78;;;17.03;43.68
48778;BME280;34578;0.000;0.000;2024-01-30T00:12:11;97957.91;;;17.03;43.90
48778;BME280;34578;0.000;0.000;2024-01-30T00:17:12;97957.91;;;17.03;43.90
48778;BME280;34578;0.000;0.000;2024-01-30T00:22:12;97962.13;;;17.02;43.62
48778;BME280;34578;0.000;0.000;2024-01-30T00:27:12;97955.38;;;17.01;43.58
48778;BME280;34578;0.000;0.000;2024-01-30T00:32:13;97956.13;;;16.99;43.63
48778;BME280;34578;0.000;0.000;2024-01-30T00:37:13;97959.59;;;17.02;43.80
48778;BME280;34578;0.000;0.000;2024-01-30T00:42:14;97963.84;;;17.03;43.72
48778;BME280;34578;0.000;0.000;2024-01-30T00:47:14;97958.69;;;17.00;43.95
48778;BME280;34578;0.000;0.000;2024-01-30T00:52:14;97958.72;;;17.02;43.69
48778;BME280;34578;0.000;0.000;2024-01-30T00:57:15;97955.38;;;17.03;43.74
48778;BME280;34578;0.000;0.000;2024-01-30T01:02:16;97961.25;;;17.02;43.97
48778;BME280;34578;0.000;0.000;2024-01-30T01:07:17;97961.25;;;17.02;43.58
48778;BME280;34578;0.000;0.000;2024-01-30T01:12:18;97964.66;;;17.02;43.34
48778;BME280;34578;0.000;0.000;2024-01-30T01:17:18;97963.72;;;16.99;43.49
48778;BME280;34578;0.000;0.000;2024-01-30T01:22:18;97960.38;;;17.00;43.41
48778;BME280;34578;0.000;0.000;2024-01-30T01:27:19;97973.03;;;17.00;43.33
48778;BME280;34578;0.000;0.000;2024-01-30T01:32:19;97965.38;;;16.98;43.31
48778;BME280;34578;0.000;0.000;2024-01-30T01:37:20;97962.03;;;16.99;43.59
48778;BME280;34578;0.000;0.000;2024-01-30T01:42:22;97956.97;;;16.99;43.05
48778;BME280;34578;0.000;0.000;2024-01-30T01:47:22;97960.38;;;17.00;43.13
48778;BME280;34578;0.000;0.000;2024-01-30T01:52:23;97949.44;;;17.01;43.67
48778;BME280;34578;0.000;0.000;2024-01-30T01:57:23;97945.25;;;17.01;42.97
48778;BME280;34578;0.000;0.000;2024-01-30T02:02:24;97948.56;;;17.00;43.12
48778;BME280;34578;0.000;0.000;2024-01-30T02:07:27;97939.25;;;16.98;43.29
48778;BME280;34578;0.000;0.000;2024-01-30T02:12:28;97942.66;;;17.00;43.68
48778;BME280;34578;0.000;0.000;2024-01-30T02:17:28;97935.06;;;17.00;43.17
48778;BME280;34578;0.000;0.000;2024-01-30T02:22:29;97932.53;;;17.00;43.05
48778;BME280;34578;0.000;0.000;2024-01-30T02:27:29;97939.31;;;17.01;43.61
48778;BME280;34578;0.000;0.000;2024-01-30T02:32:30;97943.44;;;16.97;43.34
48778;BME280;34578;0.000;0.000;2024-01-30T02:37:30;97931.69;;;16.99;43.41
48778;BME280;34578;0.000;0.000;2024-01-30T02:42:30;97934.19;;;16.98;43.14
48778;BME280;34578;0.000;0.000;2024-01-30T02:47:31;97928.31;;;16.99;43.10
48778;BME280;34578;0.000;0.000;2024-01-30T02:52:31;97924.06;;;16.98;43.04
48778;BME280;34578;0.000;0.000;2024-01-30T02:57:31;97918.13;;;16.97;43.22
48778;BME280;34578;0.000;0.000;2024-01-30T03:02:32;97921.53;;;16.98;43.08
48778;BME280;34578;0.000;0.000;2024-01-30T03:07:33;97935.91;;;16.99;43.26
48778;BME280;34578;0.000;0.000;2024-01-30T03:12:34;97927.38;;;16.97;43.16
48778;BME280;34578;0.000;0.000;2024-01-30T03:17:34;97944.31;;;16.98;43.53
48778;BME280;34578;0.000;0.000;2024-01-30T03:22:36;97948.50;;;16.97;43.05
48778;BME280;34578;0.000;0.000;2024-01-30T03:27:37;97942.56;;;16.97;42.90
48778;BME280;34578;0.000;0.000;2024-01-30T03:32:37;97960.31;;;16.98;42.98
48778;BME280;34578;0.000;0.000;2024-01-30T03:37:37;97952.69;;;16.97;42.73
48778;BME280;34578;0.000;0.000;2024-01-30T03:42:38;97963.63;;;16.94;42.61
48778;BME280;34578;0.000;0.000;2024-01-30T03:47:39;97972.09;;;16.96;42.66
48778;BME280;34578;0.000;0.000;2024-01-30T03:52:40;97964.44;;;16.93;42.83
48778;BME280;34578;0.000;0.000;2024-01-30T03:57:40;97965.28;;;16.94;42.75
48778;BME280;34578;0.000;0.000;2024-01-30T04:02:40;97957.69;;;16.94;42.52
48778;BME280;34578;0.000;0.000;2024-01-30T04:07:41;97972.91;;;16.95;42.66
48778;BME280;34578;0.000;0.000;2024-01-30T04:12:41;97971.22;;;16.96;42.79
48778;BME280;34578;0.000;0.000;2024-01-30T04:17:42;97978.00;;;16.97;43.44
48778;BME280;34578;0.000;0.000;2024-01-30T04:22:43;97976.28;;;16.96;43.32
48778;BME280;34578;0.000;0.000;2024-01-30T04:27:44;97974.44;;;16.90;43.19
48778;BME280;34578;0.000;0.000;2024-01-30T04:32:45;97989.75;;;16.95;43.11
48778;BME280;34578;0.000;0.000;2024-01-30T04:37:45;97979.50;;;16.89;43.40
48778;BME280;34578;0.000;0.000;2024-01-30T04:42:45;97984.78;;;16.98;43.50
48778;BME280;34578;0.000;0.000;2024-01-30T04:47:46;97983.22;;;17.03;43.07
48778;BME280;34578;0.000;0.000;2024-01-30T04:52:46;97985.03;;;17.07;42.83
48778;BME280;34578;0.000;0.000;2024-01-30T04:57:47;97976.63;;;17.09;42.87
48778;BME280;34578;0.000;0.000;2024-01-30T05:02:47;97979.22;;;17.11;43.06
48778;BME280;34578;0.000;0.000;2024-01-30T05:07:48;97990.22;;;17.13;42.99
48778;BME280;34578;0.000;0.000;2024-01-30T05:12:48;97988.72;;;17.21;43.69
48778;BME280;34578;0.000;0.000;2024-01-30T05:17:48;97992.97;;;17.22;43.15
48778;BME280;34578;0.000;0.000;2024-01-30T05:22:49;97978.94;;;17.33;44.13
48778;BME280;34578;0.000;0.000;2024-01-30T05:27:49;97979.91;;;17.38;44.74
48778;BME280;34578;0.000;0.000;2024-01-30T05:32:50;97985.09;;;17.42;44.79
48778;BME280;34578;0.000;0.000;2024-01-30T05:37:50;97990.25;;;17.45;44.61
48778;BME280;34578;0.000;0.000;2024-01-30T05:42:51;97989.22;;;17.39;42.88
48778;BME280;34578;0.000;0.000;2024-01-30T05:47:51;97984.00;;;17.34;41.71
48778;BME280;34578;0.000;0.000;2024-01-30T05:52:51;97993.50;;;17.40;41.04
48778;BME280;34578;0.000;0.000;2024-01-30T05:57:52;97992.66;;;17.41;41.00
48778;BME280;34578;0.000;0.000;2024-01-30T06:02:52;97991.72;;;17.37;40.56
48778;BME280;34578;0.000;0.000;2024-01-30T06:07:53;97995.94;;;17.37;40.88
48778;BME280;34578;0.000;0.000;2024-01-30T06:12:53;98008.97;;;17.21;45.82
48778;BME280;34578;0.000;0.000;2024-01-30T06:17:54;98001.81;;;17.05;51.19
48778;BME280;34578;0.000;0.000;2024-01-30T06:22:54;97997.56;;;17.02;50.61
48778;BME280;34578;0.000;0.000;2024-01-30T06:27:54;97999.16;;;16.99;51.43
48778;BME280;34578;0.000;0.000;2024-01-30T06:32:55;98005.69;;;16.92;51.71
48778;BME280;34578;0.000;0.000;2024-01-30T06:37:55;98011.06;;;16.72;41.30
48778;BME280;34578;0.000;0.000;2024-01-30T06:42:55;98008.66;;;16.77;48.87
48778;BME280;34578;0.000;0.000;2024-01-30T06:47:56;98015.38;;;16.76;49.17
48778;BME280;34578;0.000;0.000;2024-01-30T06:52:56;97994.94;;;16.69;49.44
48778;BME280;34578;0.000;0.000;2024-01-30T06:57:56;98005.91;;;16.69;49.62
48778;BME280;34578;0.000;0.000;2024-01-30T07:02:57;98017.03;;;16.75;49.88
48778;BME280;34578;0.000;0.000;2024-01-30T07:07:57;98020.38;;;16.74;50.24
48778;BME280;34578;0.000;0.000;2024-01-30T07:12:57;98016.97;;;16.73;50.20
48778;BME280;34578;0.000;0.000;2024-01-30T07:17:58;98021.19;;;16.73;50.05
48778;BME280;34578;0.000;0.000;2024-01-30T07:22:59;98027.84;;;16.70;50.36
48778;BME280;34578;0.000;0.000;2024-01-30T07:27:59;98031.31;;;16.72;50.42
48778;BME280;34578;0.000;0.000;2024-01-30T07:33:00;98032.97;;;16.72;50.59
48778;BME280;34578;0.000;0.000;2024-01-30T07:38:00;98031.31;;;16.72;50.71
48778;BME280;34578;0.000;0.000;2024-01-30T07:43:00;98036.34;;;16.72;50.54
48778;BME280;34578;0.000;0.000;2024-01-30T07:48:01;98030.31;;;16.67;50.93
48778;BME280;34578;0.000;0.000;2024-01-30T07:53:02;98037.13;;;16.71;50.37
48778;BME280;34578;0.000;0.000;2024-01-30T07:58:02;98037.97;;;16.70;50.82
48778;BME280;34578;0.000;0.000;2024-01-30T08:03:04;98037.13;;;16.70;50.61
48778;BME280;34578;0.000;0.000;2024-01-30T08:08:05;98043.88;;;16.71;50.58
48778;BME280;34578;0.000;0.000;2024-01-30T08:13:05;98031.19;;;16.69;50.70
48778;BME280;34578;0.000;0.000;2024-01-30T08:18:06;98032.88;;;16.69;50.99
48778;BME280;34578;0.000;0.000;2024-01-30T08:23:07;98029.47;;;16.68;50.79
48778;BME280;34578;0.000;0.000;2024-01-30T08:28:08;98024.50;;;16.71;50.72
48778;BME280;34578;0.000;0.000;2024-01-30T08:33:08;98019.38;;;16.68;50.91
48778;BME280;34578;0.000;0.000;2024-01-30T08:38:08;98015.94;;;16.66;51.30
48778;BME280;34578;0.000;0.000;2024-01-30T08:43:09;98010.13;;;16.69;51.24
48778;BME280;34578;0.000;0.000;2024-01-30T08:48:10;98011.78;;;16.68;51.07
48778;BME280;34578;0.000;0.000;2024-01-30T08:53:10;98017.72;;;16.69;51.02
48778;BME280;34578;0.000;0.000;2024-01-30T08:58:11;98007.53;;;16.67;51.16
48778;BME280;34578;0.000;0.000;2024-01-30T09:03:11;98012.59;;;16.67;51.13
48778;BME280;34578;0.000;0.000;2024-01-30T09:08:12;98015.13;;;16.67;51.41
48778;BME280;34578;0.000;0.000;2024-01-30T09:13:12;98013.44;;;16.67;51.10
48778;BME280;34578;0.000;0.000;2024-01-30T09:18:12;98015.94;;;16.66;51.49
48778;BME280;34578;0.000;0.000;2024-01-30T09:23:13;98013.38;;;16.65;51.43
48778;BME280;34578;0.000;0.000;2024-01-30T09:28:13;98026.00;;;16.65;51.46
48778;BME280;34578;0.000;0.000;2024-01-30T09:33:14;98020.91;;;16.63;51.22
48778;BME280;34578;0.000;0.000;2024-01-30T09:38:14;98037.00;;;16.65;51.45
48778;BME280;34578;0.000;0.000;2024-01-30T09:43:17;98038.72;;;16.66;50.92
48778;BME280;34578;0.000;0.000;2024-01-30T09:48:20;98038.66;;;16.65;51.42
48778;BME280;34578;0.000;0.000;2024-01-30T09:53:21;98031.13;;;16.66;51.34
48778;BME280;34578;0.000;0.000;2024-01-30T09:58:22;98046.28;;;16.66;51.46
48778;BME280;34578;0.000;0.000;2024-01-30T10:03:22;98031.94;;;16.65;51.27
48778;BME280;34578;0.000;0.000;2024-01-30T10:08:23;98042.06;;;16.67;51.60
48778;BME280;34578;0.000;0.000;2024-01-30T10:13:23;98040.41;;;16.67;51.38
48778;BME280;34578;0.000;0.000;2024-01-30T10:18:24;98031.13;;;16.66;51.77
48778;BME280;34578;0.000;0.000;2024-01-30T10:23:24;98031.13;;;16.66;51.39
48778;BME280;34578;0.000;0.000;2024-01-30T10:28:27;98031.88;;;16.64;51.32
48778;BME280;34578;0.000;0.000;2024-01-30T10:33:30;98039.53;;;16.65;51.36
48778;BME280;34578;0.000;0.000;2024-01-30T10:38:32;98035.34;;;16.67;51.74
48778;BME280;34578;0.000;0.000;2024-01-30T10:43:35;98024.38;;;16.67;51.19
48778;BME280;34578;0.000;0.000;2024-01-30T10:48:42;98021.03;;;16.67;51.15
48778;BME280;34578;0.000;0.000;2024-01-30T10:53:46;98021.00;;;16.66;51.78
48778;BME280;34578;0.000;0.000;2024-01-30T10:58:49;98026.06;;;16.66;51.29
48778;BME280;34578;0.000;0.000;2024-01-30T11:03:53;98032.00;;;16.68;51.49
48778;BME280;34578;0.000;0.000;2024-01-30T11:09:01;98017.66;;;16.67;51.58
48778;BME280;34578;0.000;0.000;2024-01-30T11:14:03;98021.84;;;16.67;51.58
48778;BME280;34578;0.000;0.000;2024-01-30T11:19:03;98012.59;;;16.67;51.43
48778;BME280;34578;0.000;0.000;2024-01-30T11:24:04;98018.56;;;16.69;51.65
48778;BME280;34578;0.000;0.000;2024-01-30T11:29:07;98016.88;;;16.70;51.21
48778;BME280;34578;0.000;0.000;2024-01-30T11:34:08;98015.25;;;16.72;46.88
48778;BME280;34578;0.000;0.000;2024-01-30T11:39:08;98015.19;;;16.69;49.52
48778;BME280;34578;0.000;0.000;2024-01-30T11:44:11;98009.44;;;16.74;50.76
48778;BME280;34578;0.000;0.000;2024-01-30T11:49:11;97996.84;;;16.77;50.49
48778;BME280;34578;0.000;0.000;2024-01-30T11:54:12;97999.31;;;16.74;51.45
48778;BME280;34578;0.000;0.000;2024-01-30T11:59:13;97999.25;;;16.73;51.75
48778;BME280;34578;0.000;0.000;2024-01-30T12:04:14;97984.97;;;16.74;51.56
48778;BME280;34578;0.000;0.000;2024-01-30T12:09:15;97977.38;;;16.74;50.98
48778;BME280;34578;0.000;0.000;2024-01-30T12:14:18;97985.84;;;16.75;51.55
48778;BME280;34578;0.000;0.000;2024-01-30T12:19:25;97977.44;;;16.76;50.98
48778;BME280;34578;0.000;0.000;2024-01-30T12:24:29;97970.91;;;16.84;50.52
48778;BME280;34578;0.000;0.000;2024-01-30T12:29:32;97976.16;;;16.90;50.92
48778;BME280;34578;0.000;0.000;2024-01-30T12:34:33;97972.78;;;16.91;49.05
48778;BME280;34578;0.000;0.000;2024-01-30T12:39:34;97970.41;;;16.97;50.01
48778;BME280;34578;0.000;0.000;2024-01-30T12:44:35;97978.00;;;16.97;51.18
48778;BME280;34578;0.000;0.000;2024-01-30T12:49:35;97978.84;;;16.97;52.26
48778;BME280;34578;0.000;0.000;2024-01-30T12:54:35;97981.44;;;16.99;49.39
48778;BME280;34578;0.000;0.000;2024-01-30T12:59:36;97966.25;;;16.99;50.14
48778;BME280;34578;0.000;0.000;2024-01-30T13:04:36;97972.25;;;17.02;49.50
48778;BME280;34578;0.000;0.000;2024-01-30T13:09:37;97966.38;;;17.05;48.43
48778;BME280;34578;0.000;0.000;2024-01-30T13:14:38;97972.25;;;17.02;49.99
48778;BME280;34578;0.000;0.000;2024-01-30T13:19:38;97974.91;;;17.07;48.07
48778;BME280;34578;0.000;0.000;2024-01-30T13:24:38;97971.56;;;17.08;50.16
48778;BME280;34578;0.000;0.000;2024-01-30T13:29:39;97972.38;;;17.07;49.84
48778;BME280;34578;0.000;0.000;2024-01-30T13:34:39;97983.31;;;17.07;51.10
48778;BME280;34578;0.000;0.000;2024-01-30T13:39:41;97974.03;;;17.06;49.12
48778;BME280;34578;0.000;0.000;2024-01-30T13:44:41;97968.16;;;17.07;47.49
48778;BME280;34578;0.000;0.000;2024-01-30T13:49:44;97967.25;;;17.05;48.49
48778;BME280;34578;0.000;0.000;2024-01-30T13:54:44;97963.97;;;17.09;48.87
48778;BME280;34578;0.000;0.000;2024-01-30T13:59:44;97964.78;;;17.07;48.39
48778;BME280;34578;0.000;0.000;2024-01-30T14:04:45;97964.84;;;17.10;47.60
48778;BME280;34578;0.000;0.000;2024-01-30T14:09:45;97966.50;;;17.09;48.42
48778;BME280;34578;0.000;0.000;2024-01-30T14:14:48;97967.38;;;17.10;48.25
48778;BME280;34578;0.000;0.000;2024-01-30T14:19:48;97966.50;;;17.09;47.60
48778;BME280;34578;0.000;0.000;2024-01-30T14:24:48;97972.47;;;17.11;47.80
48778;BME280;34578;0.000;0.000;2024-01-30T14:29:49;97986.72;;;17.08;48.10
48778;BME280;34578;0.000;0.000;2024-01-30T14:34:50;97979.25;;;17.12;48.01
48778;BME280;34578;0.000;0.000;2024-01-30T14:39:50;97983.50;;;17.13;47.56
48778;BME280;34578;0.000;0.000;2024-01-30T14:44:51;97991.03;;;17.12;47.33
48778;BME280;34578;0.000;0.000;2024-01-30T14:49:51;97997.84;;;17.14;47.05
48778;BME280;34578;0.000;0.000;2024-01-30T14:54:52;97999.50;;;17.12;46.78
48778;BME280;34578;0.000;0.000;2024-01-30T14:59:53;97996.97;;;17.12;46.70
48778;BME280;34578;0.000;0.000;2024-01-30T15:04:53;98002.09;;;17.14;46.62
48778;BME280;34578;0.000;0.000;2024-01-30T15:09:53;98002.88;;;17.13;46.43
48778;BME280;34578;0.000;0.000;2024-01-30T15:14:54;97986.72;;;17.08;47.06
48778;BME280;34578;0.000;0.000;2024-01-30T15:19:54;98005.50;;;17.16;46.65
48778;BME280;34578;0.000;0.000;2024-01-30T15:24:55;98009.72;;;17.17;46.35
48778;BME280;34578;0.000;0.000;2024-01-30T15:29:55;98003.78;;;17.15;46.51
48778;BME280;34578;0.000;0.000;2024-01-30T15:34:55;98002.16;;;17.17;50.56
48778;BME280;34578;0.000;0.000;2024-01-30T15:39:56;98010.38;;;17.10;47.47
48778;BME280;34578;0.000;0.000;2024-01-30T15:44:57;98012.09;;;17.11;47.24
48778;BME280;34578;0.000;0.000;2024-01-30T15:49:58;98010.47;;;17.13;48.73
48778;BME280;34578;0.000;0.000;2024-01-30T15:54:59;98016.38;;;17.13;47.24
48778;BME280;34578;0.000;0.000;2024-01-30T15:59:59;98026.50;;;17.13;48.64
48778;BME280;34578;0.000;0.000;2024-01-30T16:04:59;98026.56;;;17.15;47.52
48778;BME280;34578;0.000;0.000;2024-01-30T16:10:02;98031.56;;;17.13;47.86
48778;BME280;34578;0.000;0.000;2024-01-30T16:15:02;98037.41;;;17.11;47.47
48778;BME280;34578;0.000;0.000;2024-01-30T16:20:04;98046.00;;;17.16;49.63
48778;BME280;34578;0.000;0.000;2024-01-30T16:25:05;98044.34;;;17.18;48.29
48778;BME280;34578;0.000;0.000;2024-01-30T16:30:06;98044.34;;;17.18;46.98
48778;BME280;34578;0.000;0.000;2024-01-30T16:35:07;98046.06;;;17.19;50.50
48778;BME280;34578;0.000;0.000;2024-01-30T16:40:08;98053.69;;;17.20;47.84
48778;BME280;34578;0.000;0.000;2024-01-30T16:45:08;98055.41;;;17.21;48.98
48778;BME280;34578;0.000;0.000;2024-01-30T16:50:09;98066.22;;;17.16;47.11
48778;BME280;34578;0.000;0.000;2024-01-30T16:55:10;98065.16;;;17.08;44.52
48778;BME280;34578;0.000;0.000;2024-01-30T17:00:11;98072.63;;;17.03;43.49
48778;BME280;34578;0.000;0.000;2024-01-30T17:05:11;98075.94;;;17.01;43.16
48778;BME280;34578;0.000;0.000;2024-01-30T17:10:12;98080.94;;;16.98;42.90
48778;BME280;34578;0.000;0.000;2024-01-30T17:15:13;98086.94;;;17.03;43.03
48778;BME280;34578;0.000;0.000;2024-01-30T17:20:14;98090.47;;;17.08;43.06
48778;BME280;34578;0.000;0.000;2024-01-30T17:25:14;98096.44;;;17.10;42.67
48778;BME280;34578;0.000;0.000;2024-01-30T17:30:20;98096.50;;;17.13;42.30
48778;BME280;34578;0.000;0.000;2024-01-30T17:35:21;98096.59;;;17.16;42.40
48778;BME280;34578;0.000;0.000;2024-01-30T17:40:21;98099.13;;;17.16;41.97
48778;BME280;34578;0.000;0.000;2024-01-30T17:45:21;98108.38;;;17.15;42.14
48778;BME280;34578;0.000;0.000;2024-01-30T17:50:22;98113.44;;;17.15;41.91
48778;BME280;34578;0.000;0.000;2024-01-30T17:55:23;98115.13;;;17.15;41.86
48778;BME280;34578;0.000;0.000;2024-01-30T18:00:24;98118.63;;;17.20;49.10
48778;BME280;34578;0.000;0.000;2024-01-30T18:05:25;98121.25;;;17.23;44.24
48778;BME280;34578;0.000;0.000;2024-01-30T18:10:25;98118.81;;;17.26;44.18
48778;BME280;34578;0.000;0.000;2024-01-30T18:15:26;98126.44;;;17.27;44.22
48778;BME280;34578;0.000;0.000;2024-01-30T18:20:26;98123.91;;;17.27;44.61
48778;BME280;34578;0.000;0.000;2024-01-30T18:25:26;98126.44;;;17.27;45.21
48778;BME280;34578;0.000;0.000;2024-01-30T18:30:27;98136.56;;;17.27;45.16
48778;BME280;34578;0.000;0.000;2024-01-30T18:35:27;98145.81;;;17.27;51.23
48778;BME280;34578;0.000;0.000;2024-01-30T18:40:28;98139.09;;;17.27;45.89
48778;BME280;34578;0.000;0.000;2024-01-30T18:45:29;98149.19;;;17.26;45.17
48778;BME280;34578;0.000;0.000;2024-01-30T18:50:30;98155.06;;;17.26;45.39
48778;BME280;34578;0.000;0.000;2024-01-30T18:55:30;98139.06;;;17.26;45.11
48778;BME280;34578;0.000;0.000;2024-01-30T19:00:32;98145.75;;;17.24;48.01
48778;BME280;34578;0.000;0.000;2024-01-30T19:05:33;98137.25;;;17.22;45.34
48778;BME280;34578;0.000;0.000;2024-01-30T19:10:33;98135.66;;;17.25;45.39
48778;BME280;34578;0.000;0.000;2024-01-30T19:15:35;98152.53;;;17.25;45.51
48778;BME280;34578;0.000;0.000;2024-01-30T19:20:36;98150.81;;;17.24;45.54
48778;BME280;34578;0.000;0.000;2024-01-30T19:25:43;98144.88;;;17.23;45.34
48778;BME280;34578;0.000;0.000;2024-01-30T19:30:44;98150.81;;;17.24;45.47
48778;BME280;34578;0.000;0.000;2024-01-30T19:35:44;98143.16;;;17.22;45.05
48778;BME280;34578;0.000;0.000;2024-01-30T19:40:44;98151.63;;;17.23;45.43
48778;BME280;34578;0.000;0.000;2024-01-30T19:45:45;98144.81;;;17.20;45.65
48778;BME280;34578;0.000;0.000;2024-01-30T19:50:45;98150.72;;;17.21;46.49
48778;BME280;34578;0.000;0.000;2024-01-30T19:55:46;98146.56;;;17.23;51.51
48778;BME280;34578;0.000;0.000;2024-01-30T20:00:47;98157.53;;;17.23;54.49
48778;BME280;34578;0.000;0.000;2024-01-30T20:05:50;98170.19;;;17.23;54.13
48778;BME280;34578;0.000;0.000;2024-01-30T20:10:50;98169.34;;;17.23;54.70
48778;BME280;34578;0.000;0.000;2024-01-30T20:15:51;98172.78;;;17.25;54.61
48778;BME280;34578;0.000;0.000;2024-01-30T20:20:51;98168.53;;;17.24;55.26
48778;BME280;34578;0.000;0.000;2024-01-30T20:25:53;98185.38;;;17.23;55.63
48778;BME280;34578;0.000;0.000;2024-01-30T20:30:54;98184.53;;;17.23;54.49
48778;BME280;34578;0.000;0.000;2024-01-30T20:35:54;98178.56;;;17.21;54.96
48778;BME280;34578;0.000;0.000;2024-01-30T20:40:55;98181.94;;;17.21;54.59
48778;BME280;34578;0.000;0.000;2024-01-30T20:45:56;98183.63;;;17.21;55.21
48778;BME280;34578;0.000;0.000;2024-01-30T20:50:58;98180.25;;;17.20;54.82
48778;BME280;34578;0.000;0.000;2024-01-30T20:55:58;98179.38;;;17.20;54.70
48778;BME280;34578;0.000;0.000;2024-01-30T21:00:59;98167.53;;;17.19;54.77
48778;BME280;34578;0.000;0.000;2024-01-30T21:05:59;98170.88;;;17.18;54.91
48778;BME280;34578;0.000;0.000;2024-01-30T21:10:59;98174.22;;;17.17;54.53
48778;BME280;34578;0.000;0.000;2024-01-30T21:16:03;98169.19;;;17.17;54.25
48778;BME280;34578;0.000;0.000;2024-01-30T21:21:04;98159.88;;;17.17;52.45
48778;BME280;34578;0.000;0.000;2024-01-30T21:26:05;98175.94;;;17.18;54.34
48778;BME280;34578;0.000;0.000;2024-01-30T21:31:10;98175.94;;;17.18;53.91
48778;BME280;34578;0.000;0.000;2024-01-30T21:36:10;98173.41;;;17.18;53.75
48778;BME280;34578;0.000;0.000;2024-01-30T21:41:10;98175.06;;;17.17;53.91
48778;BME280;34578;0.000;0.000;2024-01-30T21:46:11;98177.59;;;17.16;54.13
48778;BME280;34578;0.000;0.000;2024-01-30T21:51:11;98170.00;;;17.16;53.67
48778;BME280;34578;0.000;0.000;2024-01-30T21:56:11;98173.22;;;17.12;49.74
48778;BME280;34578;0.000;0.000;2024-01-30T22:01:12;98186.88;;;17.17;52.02
48778;BME280;34578;0.000;0.000;2024-01-30T22:06:12;98186.00;;;17.15;54.22
48778;BME280;34578;0.000;0.000;2024-01-30T22:11:14;98191.06;;;17.15;53.91
48778;BME280;34578;0.000;0.000;2024-01-30T22:16:14;98191.06;;;17.15;53.71
48778;BME280;34578;0.000;0.000;2024-01-30T22:21:14;98184.22;;;17.12;53.27
48778;BME280;34578;0.000;0.000;2024-01-30T22:26:15;98186.81;;;17.14;54.53
48778;BME280;34578;0.000;0.000;2024-01-30T22:31:16;98175.75;;;17.12;54.77
48778;BME280;34578;0.000;0.000;2024-01-30T22:36:16;98183.34;;;17.10;53.96
48778;BME280;34578;0.000;0.000;2024-01-30T22:41:24;98190.09;;;17.11;53.90
48778;BME280;34578;0.000;0.000;2024-01-30T22:46:24;98185.00;;;17.10;55.25
48778;BME280;34578;0.000;0.000;2024-01-30T22:51:25;98192.59;;;17.10;55.69
48778;BME280;34578;0.000;0.000;2024-01-30T22:56:28;98191.75;;;17.11;55.11
48778;BME280;34578;0.000;0.000;2024-01-30T23:01:29;98212.00;;;17.11;55.64
48778;BME280;34578;0.000;0.000;2024-01-30T23:06:29;98209.47;;;17.11;55.46
48778;BME280;34578;0.000;0.000;2024-01-30T23:11:29;98197.66;;;17.10;54.76
48778;BME280;34578;0.000;0.000;2024-01-30T23:16:30;98201.84;;;17.09;55.14
48778;BME280;34578;0.000;0.000;2024-01-30T23:21:31;98198.47;;;17.09;55.63
48778;BME280;34578;0.000;0.000;2024-01-30T23:26:31;98202.72;;;17.10;55.48
48778;BME280;34578;0.000;0.000;2024-01-30T23:31:32;98201.84;;;17.09;55.36
48778;BME280;34578;0.000;0.000;2024-01-30T23:36:32;98193.41;;;17.09;54.97
48778;BME280;34578;0.000;0.000;2024-01-30T23:41:33;98195.13;;;17.10;55.22
48778;BME280;34578;0.000;0.000;2024-01-30T23:46:34;98203.53;;;17.09;54.97
48778;BME280;34578;0.000;0.000;2024-01-30T23:51:34;98198.47;;;17.09;55.20
48778;BME280;34578;0.000;0.000;2024-01-30T23:56:43;98206.91;;;17.09;55.51
